sensor_id;sensor_type;location;lat;lon;timestamp;P1;durP1;ratioP1;P2;durP2;ratioP2
5555;SDS011;2801;50.972;7.856;2023-07-31T00:00:14;10.13;;;3.30;;
5555;SDS011;2801;50.972;7.856;2023-07-31T00:02:41;9.13;;;3.33;;
5555;SDS011;2801;50.972;7.856;2023-07-31T00:05:08;9.60;;;3.80;;
5555;SDS011;2801;50.972;7.856;2023-07-31T00:07:36;7.28;;;3.33;;
5555;SDS011;2801;50.972;7.856;2023-07-31T00:10:03;9.48;;;3.63;;
5555;SDS011;2801;50.972;7.856;2023-07-31T00:12:30;7.25;;;3.30;;
5555;SDS011;2801;50.972;7.856;2023-07-31T00:14:57;14.07;;;4.65;;
5555;SDS011;2801;50.972;7.856;2023-07-31T00:17:24;11.73;;;4.10;;
5555;SDS011;2801;50.972;7.856;2023-07-31T00:19:51;20.83;;;4.70;;
5555;SDS011;2801;50.972;7.856;2023-07-31T00:22:18;15.90;;;4.63;;
5555;SDS011;2801;50.972;7.856;2023-07-31T00:24:45;14.38;;;4.10;;
5555;SDS011;2801;50.972;7.856;2023-07-31T00:27:12;18.20;;;4.60;;
5555;SDS011;2801;50.972;7.856;2023-07-31T00:29:39;19.23;;;4.55;;
5555;SDS011;2801;50.972;7.856;2023-07-31T00:32:06;16.60;;;5.20;;
5555;SDS011;2801;50.972;7.856;2023-07-31T00:34:33;13.30;;;4.20;;
5555;SDS011;2801;50.972;7.856;2023-07-31T00:37:00;10.80;;;3.83;;
5555;SDS011;2801;50.972;7.856;2023-07-31T00:39:27;10.02;;;3.67;;
5555;SDS011;2801;50.972;7.856;2023-07-31T00:41:56;11.05;;;3.90;;
5555;SDS011;2801;50.972;7.856;2023-07-31T00:44:23;16.13;;;3.80;;
5555;SDS011;2801;50.972;7.856;2023-07-31T00:46:50;11.30;;;3.83;;
5555;SDS011;2801;50.972;7.856;2023-07-31T00:49:17;10.20;;;4.10;;
5555;SDS011;2801;50.972;7.856;2023-07-31T00:51:44;11.77;;;4.32;;
5555;SDS011;2801;50.972;7.856;2023-07-31T00:54:11;11.98;;;3.92;;
5555;SDS011;2801;50.972;7.856;2023-07-31T00:56:38;11.82;;;4.30;;
5555;SDS011;2801;50.972;7.856;2023-07-31T00:59:10;11.50;;;3.92;;
5555;SDS011;2801;50.972;7.856;2023-07-31T01:01:37;14.73;;;4.32;;
5555;SDS011;2801;50.972;7.856;2023-07-31T01:04:04;13.48;;;4.30;;
5555;SDS011;2801;50.972;7.856;2023-07-31T01:09:54;9.25;;;4.13;;
5555;SDS011;2801;50.972;7.856;2023-07-31T01:12:44;10.43;;;3.60;;
5555;SDS011;2801;50.972;7.856;2023-07-31T01:15:12;12.10;;;4.50;;
5555;SDS011;2801;50.972;7.856;2023-07-31T01:17:42;12.32;;;4.00;;
5555;SDS011;2801;50.972;7.856;2023-07-31T01:20:14;13.85;;;4.22;;
5555;SDS011;2801;50.972;7.856;2023-07-31T01:28:26;11.50;;;4.20;;
5555;SDS011;2801;50.972;7.856;2023-07-31T01:31:22;10.25;;;3.67;;
5555;SDS011;2801;50.972;7.856;2023-07-31T01:33:52;8.52;;;3.67;;
5555;SDS011;2801;50.972;7.856;2023-07-31T01:36:22;10.23;;;4.05;;
5555;SDS011;2801;50.972;7.856;2023-07-31T01:38:49;9.63;;;3.72;;
5555;SDS011;2801;50.972;7.856;2023-07-31T01:41:17;12.45;;;3.72;;
5555;SDS011;2801;50.972;7.856;2023-07-31T01:43:45;16.35;;;3.88;;
5555;SDS011;2801;50.972;7.856;2023-07-31T01:46:12;9.10;;;3.95;;
5555;SDS011;2801;50.972;7.856;2023-07-31T01:48:39;8.85;;;4.20;;
5555;SDS011;2801;50.972;7.856;2023-07-31T01:51:06;9.88;;;3.90;;
5555;SDS011;2801;50.972;7.856;2023-07-31T01:53:33;7.22;;;3.38;;
5555;SDS011;2801;50.972;7.856;2023-07-31T01:56:00;10.82;;;3.63;;
5555;SDS011;2801;50.972;7.856;2023-07-31T01:58:27;6.55;;;3.45;;
5555;SDS011;2801;50.972;7.856;2023-07-31T02:00:54;11.02;;;3.40;;
5555;SDS011;2801;50.972;7.856;2023-07-31T02:03:21;7.72;;;3.35;;
5555;SDS011;2801;50.972;7.856;2023-07-31T02:05:49;11.07;;;3.50;;
5555;SDS011;2801;50.972;7.856;2023-07-31T02:08:16;11.45;;;3.90;;
5555;SDS011;2801;50.972;7.856;2023-07-31T02:10:43;7.00;;;3.72;;
5555;SDS011;2801;50.972;7.856;2023-07-31T02:13:10;10.77;;;3.25;;
5555;SDS011;2801;50.972;7.856;2023-07-31T02:15:37;8.32;;;3.53;;
5555;SDS011;2801;50.972;7.856;2023-07-31T02:18:04;9.10;;;3.53;;
5555;SDS011;2801;50.972;7.856;2023-07-31T02:20:34;9.90;;;3.50;;
5555;SDS011;2801;50.972;7.856;2023-07-31T02:23:01;9.70;;;3.20;;
5555;SDS011;2801;50.972;7.856;2023-07-31T02:25:28;9.52;;;3.17;;
5555;SDS011;2801;50.972;7.856;2023-07-31T02:27:55;9.13;;;3.33;;
5555;SDS011;2801;50.972;7.856;2023-07-31T02:30:22;7.97;;;3.08;;
5555;SDS011;2801;50.972;7.856;2023-07-31T02:32:49;10.68;;;3.60;;
5555;SDS011;2801;50.972;7.856;2023-07-31T02:35:16;8.75;;;3.20;;
5555;SDS011;2801;50.972;7.856;2023-07-31T02:37:44;7.85;;;3.13;;
5555;SDS011;2801;50.972;7.856;2023-07-31T02:40:11;11.57;;;3.28;;
5555;SDS011;2801;50.972;7.856;2023-07-31T02:42:39;8.70;;;3.47;;
5555;SDS011;2801;50.972;7.856;2023-07-31T02:45:06;8.57;;;3.72;;
5555;SDS011;2801;50.972;7.856;2023-07-31T02:47:33;8.98;;;3.47;;
5555;SDS011;2801;50.972;7.856;2023-07-31T02:50:01;11.02;;;3.70;;
5555;SDS011;2801;50.972;7.856;2023-07-31T02:52:32;7.85;;;3.45;;
5555;SDS011;2801;50.972;7.856;2023-07-31T02:54:59;8.63;;;2.97;;
5555;SDS011;2801;50.972;7.856;2023-07-31T02:57:26;8.95;;;3.30;;
5555;SDS011;2801;50.972;7.856;2023-07-31T02:59:53;7.32;;;3.10;;
5555;SDS011;2801;50.972;7.856;2023-07-31T03:02:20;6.70;;;2.88;;
5555;SDS011;2801;50.972;7.856;2023-07-31T03:04:47;8.77;;;2.92;;
5555;SDS011;2801;50.972;7.856;2023-07-31T03:07:14;6.28;;;2.70;;
5555;SDS011;2801;50.972;7.856;2023-07-31T03:09:41;5.50;;;2.78;;
5555;SDS011;2801;50.972;7.856;2023-07-31T03:12:08;6.45;;;3.03;;
5555;SDS011;2801;50.972;7.856;2023-07-31T03:14:35;8.10;;;2.80;;
5555;SDS011;2801;50.972;7.856;2023-07-31T03:17:02;7.35;;;2.63;;
5555;SDS011;2801;50.972;7.856;2023-07-31T03:19:32;7.10;;;2.80;;
5555;SDS011;2801;50.972;7.856;2023-07-31T03:21:59;6.47;;;3.13;;
5555;SDS011;2801;50.972;7.856;2023-07-31T03:24:26;10.13;;;3.10;;
5555;SDS011;2801;50.972;7.856;2023-07-31T03:26:55;8.10;;;3.00;;
5555;SDS011;2801;50.972;7.856;2023-07-31T03:29:22;8.63;;;2.90;;
5555;SDS011;2801;50.972;7.856;2023-07-31T03:31:50;6.00;;;2.72;;
5555;SDS011;2801;50.972;7.856;2023-07-31T03:34:17;7.03;;;2.70;;
5555;SDS011;2801;50.972;7.856;2023-07-31T03:36:44;10.18;;;3.33;;
5555;SDS011;2801;50.972;7.856;2023-07-31T03:39:11;6.45;;;2.58;;
5555;SDS011;2801;50.972;7.856;2023-07-31T03:41:38;9.02;;;2.97;;
5555;SDS011;2801;50.972;7.856;2023-07-31T03:44:05;5.25;;;2.55;;
5555;SDS011;2801;50.972;7.856;2023-07-31T03:46:31;6.68;;;2.83;;
5555;SDS011;2801;50.972;7.856;2023-07-31T03:49:00;7.32;;;2.90;;
5555;SDS011;2801;50.972;7.856;2023-07-31T03:51:26;7.05;;;2.53;;
5555;SDS011;2801;50.972;7.856;2023-07-31T03:53:54;7.25;;;2.85;;
5555;SDS011;2801;50.972;7.856;2023-07-31T03:56:20;7.80;;;3.03;;
5555;SDS011;2801;50.972;7.856;2023-07-31T03:58:48;9.18;;;3.30;;
5555;SDS011;2801;50.972;7.856;2023-07-31T04:01:15;5.72;;;2.85;;
5555;SDS011;2801;50.972;7.856;2023-07-31T04:03:43;5.88;;;3.40;;
5555;SDS011;2801;50.972;7.856;2023-07-31T04:06:10;9.43;;;3.10;;
5555;SDS011;2801;50.972;7.856;2023-07-31T04:08:36;9.10;;;2.72;;
5555;SDS011;2801;50.972;7.856;2023-07-31T04:11:03;10.07;;;3.10;;
5555;SDS011;2801;50.972;7.856;2023-07-31T04:13:30;7.47;;;3.00;;
5555;SDS011;2801;50.972;7.856;2023-07-31T04:15:57;7.65;;;3.00;;
5555;SDS011;2801;50.972;7.856;2023-07-31T04:18:25;7.80;;;2.92;;
5555;SDS011;2801;50.972;7.856;2023-07-31T04:20:52;7.97;;;2.97;;
5555;SDS011;2801;50.972;7.856;2023-07-31T04:23:19;7.00;;;2.90;;
5555;SDS011;2801;50.972;7.856;2023-07-31T04:25:46;4.72;;;3.00;;
5555;SDS011;2801;50.972;7.856;2023-07-31T04:28:13;8.40;;;3.00;;
5555;SDS011;2801;50.972;7.856;2023-07-31T04:30:40;5.85;;;3.13;;
5555;SDS011;2801;50.972;7.856;2023-07-31T04:33:07;8.73;;;3.20;;
5555;SDS011;2801;50.972;7.856;2023-07-31T04:35:34;7.53;;;3.30;;
5555;SDS011;2801;50.972;7.856;2023-07-31T04:38:01;6.95;;;3.13;;
5555;SDS011;2801;50.972;7.856;2023-07-31T04:40:28;7.68;;;2.85;;
5555;SDS011;2801;50.972;7.856;2023-07-31T04:42:55;5.45;;;2.85;;
5555;SDS011;2801;50.972;7.856;2023-07-31T04:45:22;10.60;;;3.50;;
5555;SDS011;2801;50.972;7.856;2023-07-31T04:47:49;9.30;;;3.40;;
5555;SDS011;2801;50.972;7.856;2023-07-31T04:50:16;9.40;;;3.50;;
5555;SDS011;2801;50.972;7.856;2023-07-31T04:52:43;7.82;;;3.42;;
5555;SDS011;2801;50.972;7.856;2023-07-31T04:55:10;15.98;;;3.95;;
5555;SDS011;2801;50.972;7.856;2023-07-31T04:57:37;8.23;;;3.70;;
5555;SDS011;2801;50.972;7.856;2023-07-31T05:00:04;11.82;;;3.80;;
5555;SDS011;2801;50.972;7.856;2023-07-31T05:02:32;11.27;;;3.85;;
5555;SDS011;2801;50.972;7.856;2023-07-31T05:04:59;9.35;;;3.90;;
5555;SDS011;2801;50.972;7.856;2023-07-31T05:07:26;8.85;;;3.63;;
5555;SDS011;2801;50.972;7.856;2023-07-31T05:09:53;12.48;;;3.50;;
5555;SDS011;2801;50.972;7.856;2023-07-31T05:12:23;7.70;;;3.47;;
5555;SDS011;2801;50.972;7.856;2023-07-31T05:14:50;11.10;;;3.60;;
5555;SDS011;2801;50.972;7.856;2023-07-31T05:17:17;11.25;;;4.10;;
5555;SDS011;2801;50.972;7.856;2023-07-31T05:19:44;8.18;;;3.10;;
5555;SDS011;2801;50.972;7.856;2023-07-31T05:22:11;8.43;;;3.10;;
5555;SDS011;2801;50.972;7.856;2023-07-31T05:24:38;10.05;;;3.90;;
5555;SDS011;2801;50.972;7.856;2023-07-31T05:27:05;15.13;;;3.75;;
5555;SDS011;2801;50.972;7.856;2023-07-31T05:29:32;8.95;;;3.45;;
5555;SDS011;2801;50.972;7.856;2023-07-31T05:31:59;7.85;;;3.30;;
5555;SDS011;2801;50.972;7.856;2023-07-31T05:34:26;11.60;;;3.72;;
5555;SDS011;2801;50.972;7.856;2023-07-31T05:36:53;11.00;;;3.47;;
5555;SDS011;2801;50.972;7.856;2023-07-31T05:39:20;6.50;;;3.47;;
5555;SDS011;2801;50.972;7.856;2023-07-31T05:41:47;9.57;;;3.88;;
5555;SDS011;2801;50.972;7.856;2023-07-31T05:44:14;8.95;;;4.10;;
5555;SDS011;2801;50.972;7.856;2023-07-31T05:46:41;11.60;;;4.13;;
5555;SDS011;2801;50.972;7.856;2023-07-31T05:49:09;10.52;;;3.85;;
5555;SDS011;2801;50.972;7.856;2023-07-31T05:51:36;9.82;;;3.65;;
5555;SDS011;2801;50.972;7.856;2023-07-31T05:54:02;10.63;;;3.17;;
5555;SDS011;2801;50.972;7.856;2023-07-31T05:56:29;9.32;;;3.30;;
5555;SDS011;2801;50.972;7.856;2023-07-31T05:58:57;7.55;;;3.20;;
5555;SDS011;2801;50.972;7.856;2023-07-31T06:01:24;13.38;;;3.83;;
5555;SDS011;2801;50.972;7.856;2023-07-31T06:03:51;8.73;;;3.45;;
5555;SDS011;2801;50.972;7.856;2023-07-31T06:06:19;10.02;;;3.58;;
5555;SDS011;2801;50.972;7.856;2023-07-31T06:08:46;10.68;;;3.75;;
5555;SDS011;2801;50.972;7.856;2023-07-31T06:11:13;8.10;;;3.20;;
5555;SDS011;2801;50.972;7.856;2023-07-31T06:13:40;8.00;;;3.22;;
5555;SDS011;2801;50.972;7.856;2023-07-31T06:16:09;7.47;;;3.05;;
5555;SDS011;2801;50.972;7.856;2023-07-31T06:18:36;7.88;;;3.28;;
5555;SDS011;2801;50.972;7.856;2023-07-31T06:21:03;6.95;;;3.15;;
5555;SDS011;2801;50.972;7.856;2023-07-31T06:23:30;11.23;;;3.40;;
5555;SDS011;2801;50.972;7.856;2023-07-31T06:25:57;7.28;;;2.95;;
5555;SDS011;2801;50.972;7.856;2023-07-31T06:28:28;8.60;;;3.33;;
5555;SDS011;2801;50.972;7.856;2023-07-31T06:30:56;6.13;;;3.33;;
5555;SDS011;2801;50.972;7.856;2023-07-31T06:33:24;8.02;;;3.30;;
5555;SDS011;2801;50.972;7.856;2023-07-31T06:35:51;7.03;;;3.25;;
5555;SDS011;2801;50.972;7.856;2023-07-31T06:38:21;6.88;;;3.30;;
5555;SDS011;2801;50.972;7.856;2023-07-31T06:40:50;8.23;;;3.45;;
5555;SDS011;2801;50.972;7.856;2023-07-31T06:43:17;7.90;;;3.17;;
5555;SDS011;2801;50.972;7.856;2023-07-31T06:45:45;6.38;;;3.58;;
5555;SDS011;2801;50.972;7.856;2023-07-31T06:48:12;9.80;;;3.03;;
5555;SDS011;2801;50.972;7.856;2023-07-31T06:50:39;6.25;;;3.08;;
5555;SDS011;2801;50.972;7.856;2023-07-31T06:53:06;7.50;;;3.15;;
5555;SDS011;2801;50.972;7.856;2023-07-31T06:55:33;9.25;;;3.72;;
5555;SDS011;2801;50.972;7.856;2023-07-31T06:58:00;7.03;;;3.10;;
5555;SDS011;2801;50.972;7.856;2023-07-31T07:00:27;7.05;;;3.47;;
5555;SDS011;2801;50.972;7.856;2023-07-31T07:02:55;5.80;;;3.50;;
5555;SDS011;2801;50.972;7.856;2023-07-31T07:05:22;9.07;;;3.28;;
5555;SDS011;2801;50.972;7.856;2023-07-31T07:07:49;7.30;;;3.42;;
5555;SDS011;2801;50.972;7.856;2023-07-31T07:10:19;9.65;;;3.55;;
5555;SDS011;2801;50.972;7.856;2023-07-31T07:12:47;10.00;;;3.83;;
5555;SDS011;2801;50.972;7.856;2023-07-31T07:15:15;10.70;;;3.35;;
5555;SDS011;2801;50.972;7.856;2023-07-31T07:17:42;7.00;;;3.35;;
5555;SDS011;2801;50.972;7.856;2023-07-31T07:20:09;10.15;;;4.78;;
5555;SDS011;2801;50.972;7.856;2023-07-31T07:22:36;9.68;;;3.95;;
5555;SDS011;2801;50.972;7.856;2023-07-31T07:25:03;5.85;;;3.30;;
5555;SDS011;2801;50.972;7.856;2023-07-31T07:27:31;5.72;;;3.50;;
5555;SDS011;2801;50.972;7.856;2023-07-31T07:29:58;8.48;;;3.70;;
5555;SDS011;2801;50.972;7.856;2023-07-31T07:32:25;7.47;;;3.45;;
5555;SDS011;2801;50.972;7.856;2023-07-31T07:34:52;12.75;;;4.18;;
5555;SDS011;2801;50.972;7.856;2023-07-31T07:37:19;9.15;;;3.78;;
5555;SDS011;2801;50.972;7.856;2023-07-31T07:39:46;8.68;;;4.20;;
5555;SDS011;2801;50.972;7.856;2023-07-31T07:42:13;5.57;;;3.25;;
5555;SDS011;2801;50.972;7.856;2023-07-31T07:44:40;7.13;;;3.72;;
5555;SDS011;2801;50.972;7.856;2023-07-31T07:47:07;7.93;;;4.05;;
5555;SDS011;2801;50.972;7.856;2023-07-31T07:49:34;6.45;;;3.38;;
5555;SDS011;2801;50.972;7.856;2023-07-31T07:52:02;8.45;;;3.78;;
5555;SDS011;2801;50.972;7.856;2023-07-31T07:54:29;7.93;;;3.35;;
5555;SDS011;2801;50.972;7.856;2023-07-31T07:56:57;8.63;;;3.80;;
5555;SDS011;2801;50.972;7.856;2023-07-31T07:59:24;7.25;;;3.42;;
5555;SDS011;2801;50.972;7.856;2023-07-31T08:01:56;8.10;;;4.38;;
5555;SDS011;2801;50.972;7.856;2023-07-31T08:04:23;6.13;;;3.60;;
5555;SDS011;2801;50.972;7.856;2023-07-31T08:06:50;6.75;;;3.30;;
5555;SDS011;2801;50.972;7.856;2023-07-31T08:09:18;6.47;;;3.28;;
5555;SDS011;2801;50.972;7.856;2023-07-31T08:11:45;6.75;;;3.40;;
5555;SDS011;2801;50.972;7.856;2023-07-31T08:14:12;6.13;;;3.10;;
5555;SDS011;2801;50.972;7.856;2023-07-31T08:16:39;6.65;;;3.30;;
5555;SDS011;2801;50.972;7.856;2023-07-31T08:19:06;7.65;;;3.65;;
5555;SDS011;2801;50.972;7.856;2023-07-31T08:21:33;8.25;;;3.05;;
5555;SDS011;2801;50.972;7.856;2023-07-31T08:24:00;7.32;;;3.38;;
5555;SDS011;2801;50.972;7.856;2023-07-31T08:26:27;8.18;;;3.60;;
5555;SDS011;2801;50.972;7.856;2023-07-31T08:28:54;7.68;;;3.90;;
5555;SDS011;2801;50.972;7.856;2023-07-31T08:31:21;6.85;;;3.65;;
5555;SDS011;2801;50.972;7.856;2023-07-31T08:33:48;9.45;;;4.05;;
5555;SDS011;2801;50.972;7.856;2023-07-31T08:36:15;6.97;;;3.47;;
5555;SDS011;2801;50.972;7.856;2023-07-31T08:38:42;9.20;;;3.80;;
5555;SDS011;2801;50.972;7.856;2023-07-31T08:41:09;8.82;;;4.00;;
5555;SDS011;2801;50.972;7.856;2023-07-31T08:43:36;8.93;;;3.53;;
5555;SDS011;2801;50.972;7.856;2023-07-31T08:46:05;9.00;;;3.70;;
5555;SDS011;2801;50.972;7.856;2023-07-31T08:48:32;7.93;;;3.92;;
5555;SDS011;2801;50.972;7.856;2023-07-31T08:51:01;6.30;;;3.60;;
5555;SDS011;2801;50.972;7.856;2023-07-31T08:53:28;8.15;;;3.80;;
5555;SDS011;2801;50.972;7.856;2023-07-31T08:55:56;8.02;;;3.78;;
5555;SDS011;2801;50.972;7.856;2023-07-31T08:58:25;10.20;;;4.22;;
5555;SDS011;2801;50.972;7.856;2023-07-31T09:00:58;7.38;;;3.67;;
5555;SDS011;2801;50.972;7.856;2023-07-31T09:03:30;5.93;;;3.35;;
5555;SDS011;2801;50.972;7.856;2023-07-31T09:06:02;7.75;;;3.50;;
5555;SDS011;2801;50.972;7.856;2023-07-31T09:08:32;7.95;;;3.85;;
5555;SDS011;2801;50.972;7.856;2023-07-31T09:11:00;10.77;;;3.90;;
5555;SDS011;2801;50.972;7.856;2023-07-31T09:13:29;7.95;;;3.78;;
5555;SDS011;2801;50.972;7.856;2023-07-31T09:15:58;7.68;;;3.53;;
5555;SDS011;2801;50.972;7.856;2023-07-31T09:18:25;5.78;;;3.42;;
5555;SDS011;2801;50.972;7.856;2023-07-31T09:21:02;3.70;;;2.42;;
5555;SDS011;2801;50.972;7.856;2023-07-31T09:23:40;4.82;;;2.90;;
5555;SDS011;2801;50.972;7.856;2023-07-31T09:29:01;4.88;;;3.15;;
5555;SDS011;2801;50.972;7.856;2023-07-31T09:34:11;6.05;;;3.40;;
5555;SDS011;2801;50.972;7.856;2023-07-31T09:36:42;4.95;;;2.47;;
5555;SDS011;2801;50.972;7.856;2023-07-31T09:39:15;3.63;;;2.28;;
5555;SDS011;2801;50.972;7.856;2023-07-31T09:41:44;8.60;;;4.10;;
5555;SDS011;2801;50.972;7.856;2023-07-31T09:44:19;5.50;;;3.42;;
5555;SDS011;2801;50.972;7.856;2023-07-31T09:46:46;5.30;;;2.78;;
5555;SDS011;2801;50.972;7.856;2023-07-31T09:49:14;3.92;;;2.33;;
5555;SDS011;2801;50.972;7.856;2023-07-31T09:51:41;6.35;;;2.63;;
5555;SDS011;2801;50.972;7.856;2023-07-31T09:54:09;5.95;;;2.88;;
5555;SDS011;2801;50.972;7.856;2023-07-31T09:56:39;7.38;;;2.60;;
5555;SDS011;2801;50.972;7.856;2023-07-31T09:59:17;7.35;;;2.88;;
5555;SDS011;2801;50.972;7.856;2023-07-31T10:01:49;4.93;;;2.47;;
5555;SDS011;2801;50.972;7.856;2023-07-31T10:04:19;5.03;;;2.88;;
5555;SDS011;2801;50.972;7.856;2023-07-31T10:06:53;5.90;;;3.45;;
5555;SDS011;2801;50.972;7.856;2023-07-31T10:09:21;6.40;;;3.28;;
5555;SDS011;2801;50.972;7.856;2023-07-31T10:11:56;6.22;;;3.28;;
5555;SDS011;2801;50.972;7.856;2023-07-31T10:14:28;5.75;;;3.17;;
5555;SDS011;2801;50.972;7.856;2023-07-31T10:16:57;8.25;;;3.70;;
5555;SDS011;2801;50.972;7.856;2023-07-31T10:19:25;7.28;;;3.33;;
5555;SDS011;2801;50.972;7.856;2023-07-31T10:21:55;7.95;;;3.47;;
5555;SDS011;2801;50.972;7.856;2023-07-31T10:24:25;6.57;;;3.55;;
5555;SDS011;2801;50.972;7.856;2023-07-31T10:26:55;9.13;;;4.03;;
5555;SDS011;2801;50.972;7.856;2023-07-31T10:29:26;8.18;;;4.88;;
5555;SDS011;2801;50.972;7.856;2023-07-31T10:31:56;7.05;;;3.72;;
5555;SDS011;2801;50.972;7.856;2023-07-31T10:34:25;9.30;;;3.88;;
5555;SDS011;2801;50.972;7.856;2023-07-31T10:42:30;8.38;;;3.97;;
5555;SDS011;2801;50.972;7.856;2023-07-31T10:45:23;10.02;;;4.85;;
5555;SDS011;2801;50.972;7.856;2023-07-31T10:48:06;10.57;;;4.15;;
5555;SDS011;2801;50.972;7.856;2023-07-31T10:50:47;10.70;;;4.68;;
5555;SDS011;2801;50.972;7.856;2023-07-31T10:53:29;10.70;;;4.88;;
5555;SDS011;2801;50.972;7.856;2023-07-31T10:55:59;12.73;;;4.88;;
5555;SDS011;2801;50.972;7.856;2023-07-31T10:58:34;10.35;;;4.20;;
5555;SDS011;2801;50.972;7.856;2023-07-31T11:01:03;11.02;;;4.97;;
5555;SDS011;2801;50.972;7.856;2023-07-31T11:06:17;12.00;;;4.80;;
5555;SDS011;2801;50.972;7.856;2023-07-31T11:08:45;12.57;;;5.10;;
5555;SDS011;2801;50.972;7.856;2023-07-31T11:11:15;11.38;;;4.40;;
5555;SDS011;2801;50.972;7.856;2023-07-31T11:13:49;10.20;;;5.10;;
5555;SDS011;2801;50.972;7.856;2023-07-31T11:16:20;9.52;;;5.03;;
5555;SDS011;2801;50.972;7.856;2023-07-31T11:18:49;12.00;;;5.45;;
5555;SDS011;2801;50.972;7.856;2023-07-31T11:21:19;11.70;;;4.72;;
5555;SDS011;2801;50.972;7.856;2023-07-31T11:23:50;12.10;;;4.78;;
5555;SDS011;2801;50.972;7.856;2023-07-31T11:26:20;15.18;;;5.15;;
5555;SDS011;2801;50.972;7.856;2023-07-31T11:28:47;8.32;;;4.80;;
5555;SDS011;2801;50.972;7.856;2023-07-31T11:31:15;11.75;;;5.13;;
5555;SDS011;2801;50.972;7.856;2023-07-31T11:33:44;12.00;;;5.22;;
5555;SDS011;2801;50.972;7.856;2023-07-31T11:36:18;11.30;;;5.00;;
5555;SDS011;2801;50.972;7.856;2023-07-31T11:38:47;10.43;;;5.00;;
5555;SDS011;2801;50.972;7.856;2023-07-31T11:41:15;12.82;;;5.38;;
5555;SDS011;2801;50.972;7.856;2023-07-31T11:43:45;11.25;;;4.97;;
5555;SDS011;2801;50.972;7.856;2023-07-31T11:46:14;11.23;;;5.03;;
5555;SDS011;2801;50.972;7.856;2023-07-31T11:48:41;9.00;;;4.15;;
5555;SDS011;2801;50.972;7.856;2023-07-31T11:51:10;9.15;;;4.60;;
5555;SDS011;2801;50.972;7.856;2023-07-31T11:53:44;9.90;;;4.45;;
5555;SDS011;2801;50.972;7.856;2023-07-31T11:56:18;12.82;;;5.07;;
5555;SDS011;2801;50.972;7.856;2023-07-31T11:58:58;8.25;;;4.18;;
5555;SDS011;2801;50.972;7.856;2023-07-31T12:01:29;10.38;;;4.47;;
5555;SDS011;2801;50.972;7.856;2023-07-31T12:03:57;6.30;;;3.80;;
5555;SDS011;2801;50.972;7.856;2023-07-31T12:06:35;9.00;;;3.90;;
5555;SDS011;2801;50.972;7.856;2023-07-31T12:09:03;8.30;;;3.75;;
5555;SDS011;2801;50.972;7.856;2023-07-31T12:11:42;6.28;;;3.95;;
5555;SDS011;2801;50.972;7.856;2023-07-31T12:14:20;9.25;;;3.78;;
5555;SDS011;2801;50.972;7.856;2023-07-31T12:16:58;8.60;;;3.90;;
5555;SDS011;2801;50.972;7.856;2023-07-31T12:19:30;7.13;;;3.38;;
5555;SDS011;2801;50.972;7.856;2023-07-31T12:21:58;7.20;;;3.40;;
5555;SDS011;2801;50.972;7.856;2023-07-31T12:24:27;8.15;;;3.67;;
5555;SDS011;2801;50.972;7.856;2023-07-31T12:26:54;7.65;;;3.17;;
5555;SDS011;2801;50.972;7.856;2023-07-31T12:29:21;6.50;;;3.55;;
5555;SDS011;2801;50.972;7.856;2023-07-31T12:31:48;6.28;;;3.78;;
5555;SDS011;2801;50.972;7.856;2023-07-31T12:34:18;6.75;;;3.08;;
5555;SDS011;2801;50.972;7.856;2023-07-31T12:36:47;5.13;;;3.17;;
5555;SDS011;2801;50.972;7.856;2023-07-31T12:39:17;8.60;;;3.80;;
5555;SDS011;2801;50.972;7.856;2023-07-31T12:41:44;9.15;;;3.10;;
5555;SDS011;2801;50.972;7.856;2023-07-31T12:44:11;5.78;;;3.22;;
5555;SDS011;2801;50.972;7.856;2023-07-31T12:46:37;4.63;;;3.00;;
5555;SDS011;2801;50.972;7.856;2023-07-31T12:49:05;6.80;;;3.00;;
5555;SDS011;2801;50.972;7.856;2023-07-31T12:51:32;5.88;;;2.90;;
5555;SDS011;2801;50.972;7.856;2023-07-31T12:53:59;4.30;;;2.53;;
5555;SDS011;2801;50.972;7.856;2023-07-31T12:56:26;6.32;;;2.50;;
5555;SDS011;2801;50.972;7.856;2023-07-31T12:58:53;3.92;;;2.58;;
5555;SDS011;2801;50.972;7.856;2023-07-31T13:01:20;4.47;;;2.30;;
5555;SDS011;2801;50.972;7.856;2023-07-31T13:03:47;3.90;;;2.00;;
5555;SDS011;2801;50.972;7.856;2023-07-31T13:06:14;4.60;;;2.00;;
5555;SDS011;2801;50.972;7.856;2023-07-31T13:08:41;3.65;;;1.95;;
5555;SDS011;2801;50.972;7.856;2023-07-31T13:11:09;3.67;;;1.83;;
5555;SDS011;2801;50.972;7.856;2023-07-31T13:13:36;4.15;;;1.90;;
5555;SDS011;2801;50.972;7.856;2023-07-31T13:16:03;3.15;;;1.73;;
5555;SDS011;2801;50.972;7.856;2023-07-31T13:18:31;3.78;;;1.60;;
5555;SDS011;2801;50.972;7.856;2023-07-31T13:20:57;2.65;;;1.83;;
5555;SDS011;2801;50.972;7.856;2023-07-31T13:23:24;2.42;;;1.52;;
5555;SDS011;2801;50.972;7.856;2023-07-31T13:25:51;2.67;;;1.70;;
5555;SDS011;2801;50.972;7.856;2023-07-31T13:28:18;2.55;;;1.40;;
5555;SDS011;2801;50.972;7.856;2023-07-31T13:30:45;3.45;;;1.60;;
5555;SDS011;2801;50.972;7.856;2023-07-31T13:33:12;2.58;;;1.52;;
5555;SDS011;2801;50.972;7.856;2023-07-31T13:35:59;5.55;;;1.67;;
5555;SDS011;2801;50.972;7.856;2023-07-31T13:38:26;1.75;;;1.40;;
5555;SDS011;2801;50.972;7.856;2023-07-31T13:40:53;2.25;;;1.63;;
5555;SDS011;2801;50.972;7.856;2023-07-31T13:43:20;2.80;;;1.75;;
5555;SDS011;2801;50.972;7.856;2023-07-31T13:45:47;4.65;;;2.10;;
5555;SDS011;2801;50.972;7.856;2023-07-31T13:48:14;3.58;;;2.08;;
5555;SDS011;2801;50.972;7.856;2023-07-31T13:50:41;3.53;;;1.70;;
5555;SDS011;2801;50.972;7.856;2023-07-31T13:53:08;4.57;;;2.03;;
5555;SDS011;2801;50.972;7.856;2023-07-31T13:55:35;2.53;;;1.80;;
5555;SDS011;2801;50.972;7.856;2023-07-31T13:58:02;3.28;;;2.17;;
5555;SDS011;2801;50.972;7.856;2023-07-31T14:00:29;3.03;;;1.90;;
5555;SDS011;2801;50.972;7.856;2023-07-31T14:02:56;4.35;;;2.08;;
5555;SDS011;2801;50.972;7.856;2023-07-31T14:05:23;6.07;;;2.30;;
5555;SDS011;2801;50.972;7.856;2023-07-31T14:07:50;3.13;;;2.10;;
5555;SDS011;2801;50.972;7.856;2023-07-31T14:10:17;3.95;;;2.03;;
5555;SDS011;2801;50.972;7.856;2023-07-31T14:12:44;3.33;;;2.20;;
5555;SDS011;2801;50.972;7.856;2023-07-31T14:15:11;5.32;;;2.40;;
5555;SDS011;2801;50.972;7.856;2023-07-31T14:17:38;5.35;;;2.25;;
5555;SDS011;2801;50.972;7.856;2023-07-31T14:20:06;4.40;;;2.40;;
5555;SDS011;2801;50.972;7.856;2023-07-31T14:22:34;5.85;;;2.70;;
5555;SDS011;2801;50.972;7.856;2023-07-31T14:25:01;3.63;;;2.38;;
5555;SDS011;2801;50.972;7.856;2023-07-31T14:27:28;3.20;;;2.08;;
5555;SDS011;2801;50.972;7.856;2023-07-31T14:29:55;5.82;;;2.28;;
5555;SDS011;2801;50.972;7.856;2023-07-31T14:32:22;4.53;;;2.38;;
5555;SDS011;2801;50.972;7.856;2023-07-31T14:34:51;5.35;;;2.67;;
5555;SDS011;2801;50.972;7.856;2023-07-31T14:37:19;3.90;;;2.50;;
5555;SDS011;2801;50.972;7.856;2023-07-31T14:39:46;4.18;;;2.05;;
5555;SDS011;2801;50.972;7.856;2023-07-31T14:42:12;7.90;;;3.70;;
5555;SDS011;2801;50.972;7.856;2023-07-31T14:44:40;4.28;;;2.17;;
5555;SDS011;2801;50.972;7.856;2023-07-31T14:47:06;6.20;;;3.40;;
5555;SDS011;2801;50.972;7.856;2023-07-31T14:49:33;5.30;;;2.88;;
5555;SDS011;2801;50.972;7.856;2023-07-31T14:52:00;3.53;;;2.35;;
5555;SDS011;2801;50.972;7.856;2023-07-31T14:54:27;5.75;;;2.58;;
5555;SDS011;2801;50.972;7.856;2023-07-31T14:56:54;6.00;;;2.90;;
5555;SDS011;2801;50.972;7.856;2023-07-31T14:59:21;4.75;;;2.50;;
5555;SDS011;2801;50.972;7.856;2023-07-31T15:01:48;5.05;;;2.55;;
5555;SDS011;2801;50.972;7.856;2023-07-31T15:04:15;3.90;;;2.70;;
5555;SDS011;2801;50.972;7.856;2023-07-31T15:06:42;4.53;;;3.03;;
5555;SDS011;2801;50.972;7.856;2023-07-31T15:09:09;4.93;;;2.95;;
5555;SDS011;2801;50.972;7.856;2023-07-31T15:11:36;5.47;;;3.33;;
5555;SDS011;2801;50.972;7.856;2023-07-31T15:14:03;5.35;;;2.80;;
5555;SDS011;2801;50.972;7.856;2023-07-31T15:16:30;5.72;;;2.55;;
5555;SDS011;2801;50.972;7.856;2023-07-31T15:18:58;4.70;;;2.92;;
5555;SDS011;2801;50.972;7.856;2023-07-31T15:21:25;4.00;;;2.45;;
5555;SDS011;2801;50.972;7.856;2023-07-31T15:23:52;3.50;;;2.50;;
5555;SDS011;2801;50.972;7.856;2023-07-31T15:26:19;3.63;;;2.42;;
5555;SDS011;2801;50.972;7.856;2023-07-31T15:28:48;3.58;;;2.08;;
5555;SDS011;2801;50.972;7.856;2023-07-31T15:31:22;3.08;;;2.30;;
5555;SDS011;2801;50.972;7.856;2023-07-31T15:33:49;3.70;;;2.20;;
5555;SDS011;2801;50.972;7.856;2023-07-31T15:36:15;4.07;;;2.10;;
5555;SDS011;2801;50.972;7.856;2023-07-31T15:38:43;3.10;;;2.10;;
5555;SDS011;2801;50.972;7.856;2023-07-31T15:41:10;3.75;;;1.95;;